sensor_id;sensor_type;location;lat;lon;timestamp;pressure;altitude;pressure_sealevel;temperature;humidity
15750;BME280;7976;52.526;13.326;2023-02-03T00:02:05;101690.97;;;4.85;84.46
15750;BME280;7976;52.526;13.326;2023-02-03T00:04:32;101686.63;;;4.89;84.52
15750;BME280;7976;52.526;13.326;2023-02-03T00:06:58;101684.91;;;4.86;84.35
15750;BME280;7976;52.526;13.326;2023-02-03T00:09:25;101680.56;;;4.84;84.48
15750;BME280;7976;52.526;13.326;2023-02-03T00:11:53;101674.53;;;4.83;84.60
15750;BME280;7976;52.526;13.326;2023-02-03T00:14:20;101665.88;;;4.78;84.78
15750;BME280;7976;52.526;13.326;2023-02-03T00:16:47;101668.47;;;4.77;84.77
15750;BME280;7976;52.526;13.326;2023-02-03T00:19:15;101661.53;;;4.77;84.99
15750;BME280;7976;52.526;13.326;2023-02-03T00:21:41;101652.94;;;4.77;85.06
15750;BME280;7976;52.526;13.326;2023-02-03T00:24:08;101643.41;;;4.73;84.96
15750;BME280;7976;52.526;13.326;2023-02-03T00:26:40;101635.63;;;4.65;85.29
15750;BME280;7976;52.526;13.326;2023-02-03T00:29:08;101629.56;;;4.57;85.30
15750;BME280;7976;52.526;13.326;2023-02-03T00:31:35;101619.19;;;4.53;85.53
15750;BME280;7976;52.526;13.326;2023-02-03T00:34:02;101620.06;;;4.55;86.02
15750;BME280;7976;52.526;13.326;2023-02-03T00:36:30;101613.16;;;4.55;86.26
15750;BME280;7976;52.526;13.326;2023-02-03T00:38:57;101613.16;;;4.55;86.51
15750;BME280;7976;52.526;13.326;2023-02-03T00:41:29;101596.75;;;4.53;86.86
15750;BME280;7976;52.526;13.326;2023-02-03T00:43:56;101591.53;;;4.47;87.21
15750;BME280;7976;52.526;13.326;2023-02-03T00:46:23;101569.94;;;4.44;87.80
15750;BME280;7976;52.526;13.326;2023-02-03T00:48:50;101581.16;;;4.44;88.19
15750;BME280;7976;52.526;13.326;2023-02-03T00:51:17;101587.22;;;4.43;88.50
15750;BME280;7976;52.526;13.326;2023-02-03T00:53:46;101580.28;;;4.44;89.03
15750;BME280;7976;52.526;13.326;2023-02-03T00:56:13;101581.19;;;4.41;89.15
15750;BME280;7976;52.526;13.326;2023-02-03T00:58:40;101581.19;;;4.38;89.78
15750;BME280;7976;52.526;13.326;2023-02-03T01:01:08;101574.25;;;4.37;90.03
15750;BME280;7976;52.526;13.326;2023-02-03T01:03:35;101572.53;;;4.33;90.19
15750;BME280;7976;52.526;13.326;2023-02-03T01:06:10;101565.63;;;4.35;90.62
15750;BME280;7976;52.526;13.326;2023-02-03T01:08:38;101553.53;;;4.37;90.93
15750;BME280;7976;52.526;13.326;2023-02-03T01:11:09;101566.47;;;4.36;91.10
15750;BME280;7976;52.526;13.326;2023-02-03T01:13:37;101549.22;;;4.36;91.48
15750;BME280;7976;52.526;13.326;2023-02-03T01:16:07;101547.50;;;4.40;91.68
15750;BME280;7976;52.526;13.326;2023-02-03T01:18:34;101552.69;;;4.37;91.79
15750;BME280;7976;52.526;13.326;2023-02-03T01:21:08;101546.63;;;4.32;91.98
15750;BME280;7976;52.526;13.326;2023-02-03T01:23:35;101528.50;;;4.32;92.47
15750;BME280;7976;52.526;13.326;2023-02-03T01:26:05;101533.66;;;4.29;92.59
15750;BME280;7976;52.526;13.326;2023-02-03T01:28:34;101534.53;;;4.26;92.88
15750;BME280;7976;52.526;13.326;2023-02-03T01:31:12;101531.06;;;4.24;93.13
15750;BME280;7976;52.526;13.326;2023-02-03T01:33:40;101510.34;;;4.18;93.27
15750;BME280;7976;52.526;13.326;2023-02-03T01:36:11;101502.59;;;4.15;93.53
15750;BME280;7976;52.526;13.326;2023-02-03T01:38:39;101496.53;;;4.13;93.70
15750;BME280;7976;52.526;13.326;2023-02-03T01:41:09;101499.13;;;4.13;94.21
15750;BME280;7976;52.526;13.326;2023-02-03T01:43:41;101499.09;;;4.09;94.18
15750;BME280;7976;52.526;13.326;2023-02-03T01:46:24;101486.16;;;4.04;94.20
15750;BME280;7976;52.526;13.326;2023-02-03T01:49:00;101472.34;;;4.02;94.88
15750;BME280;7976;52.526;13.326;2023-02-03T01:51:30;101465.44;;;4.03;94.94
15750;BME280;7976;52.526;13.326;2023-02-03T01:53:59;101453.38;;;4.02;94.94
15750;BME280;7976;52.526;13.326;2023-02-03T01:56:29;101449.91;;;4.01;95.14
15750;BME280;7976;52.526;13.326;2023-02-03T01:58:59;101446.47;;;4.04;95.31
15750;BME280;7976;52.526;13.326;2023-02-03T02:01:28;101444.72;;;4.07;95.49
15750;BME280;7976;52.526;13.326;2023-02-03T02:04:00;101450.78;;;4.05;95.43
15750;BME280;7976;52.526;13.326;2023-02-03T02:06:28;101437.84;;;4.02;95.83
15750;BME280;7976;52.526;13.326;2023-02-03T02:09:00;101433.53;;;3.98;95.62
15750;BME280;7976;52.526;13.326;2023-02-03T02:11:28;101425.75;;;3.90;95.74
15750;BME280;7976;52.526;13.326;2023-02-03T02:14:00;101408.50;;;3.89;96.09
15750;BME280;7976;52.526;13.326;2023-02-03T02:16:40;101403.31;;;3.92;96.25
15750;BME280;7976;52.526;13.326;2023-02-03T02:19:44;101386.94;;;3.96;96.67
15750;BME280;7976;52.526;13.326;2023-02-03T02:22:25;101379.16;;;4.01;96.67
15750;BME280;7976;52.526;13.326;2023-02-03T02:25:18;101370.53;;;4.09;96.95
15750;BME280;7976;52.526;13.326;2023-02-03T02:28:24;101365.34;;;4.12;96.55
15750;BME280;7976;52.526;13.326;2023-02-03T02:31:52;101353.25;;;4.14;96.99
15750;BME280;7976;52.526;13.326;2023-02-03T02:34:37;101336.88;;;4.15;97.09
15750;BME280;7976;52.526;13.326;2023-02-03T02:37:21;101327.38;;;4.08;97.08
15750;BME280;7976;52.526;13.326;2023-02-03T02:40:02;101317.88;;;4.04;97.26
15750;BME280;7976;52.526;13.326;2023-02-03T02:42:38;101306.66;;;4.02;97.34
15750;BME280;7976;52.526;13.326;2023-02-03T02:45:14;101298.06;;;4.00;97.50
15750;BME280;7976;52.526;13.326;2023-02-03T02:47:44;101292.88;;;3.96;97.32
15750;BME280;7976;52.526;13.326;2023-02-03T02:50:18;101286.84;;;3.97;97.35
15750;BME280;7976;52.526;13.326;2023-02-03T02:52:50;101282.50;;;3.97;97.52
15750;BME280;7976;52.526;13.326;2023-02-03T02:55:22;101268.75;;;3.95;97.39
15750;BME280;7976;52.526;13.326;2023-02-03T02:58:01;101269.59;;;3.93;97.52
15750;BME280;7976;52.526;13.326;2023-02-03T03:00:30;101267.84;;;3.88;97.28
15750;BME280;7976;52.526;13.326;2023-02-03T03:03:11;101256.66;;;3.83;97.42
15750;BME280;7976;52.526;13.326;2023-02-03T03:05:43;101254.06;;;3.83;97.63
15750;BME280;7976;52.526;13.326;2023-02-03T03:08:16;101244.59;;;3.85;97.72
15750;BME280;7976;52.526;13.326;2023-02-03T03:10:46;101251.50;;;3.85;97.65
15750;BME280;7976;52.526;13.326;2023-02-03T03:13:20;101248.91;;;3.85;97.65
15750;BME280;7976;52.526;13.326;2023-02-03T03:15:51;101240.25;;;3.89;98.04
15750;BME280;7976;52.526;13.326;2023-02-03T03:18:26;101225.59;;;3.94;98.06
15750;BME280;7976;52.526;13.326;2023-02-03T03:20:57;101216.06;;;3.99;98.16
15750;BME280;7976;52.526;13.326;2023-02-03T03:23:34;101208.31;;;4.01;98.12
15750;BME280;7976;52.526;13.326;2023-02-03T03:26:11;101204.00;;;4.01;98.34
15750;BME280;7976;52.526;13.326;2023-02-03T03:28:46;101191.03;;;4.04;98.36
15750;BME280;7976;52.526;13.326;2023-02-03T03:31:15;101191.94;;;4.02;98.31
15750;BME280;7976;52.526;13.326;2023-02-03T03:33:46;101171.22;;;3.97;98.20
15750;BME280;7976;52.526;13.326;2023-02-03T03:36:27;101172.09;;;3.96;98.50
15750;BME280;7976;52.526;13.326;2023-02-03T03:39:02;101166.94;;;3.93;98.68
15750;BME280;7976;52.526;13.326;2023-02-03T03:41:42;101168.66;;;3.91;98.76
15750;BME280;7976;52.526;13.326;2023-02-03T03:44:17;101167.78;;;4.00;99.18
15750;BME280;7976;52.526;13.326;2023-02-03T03:46:52;101171.22;;;4.02;99.34
15750;BME280;7976;52.526;13.326;2023-02-03T03:49:24;101170.34;;;4.01;99.23
15750;BME280;7976;52.526;13.326;2023-02-03T03:51:58;101160.84;;;4.05;99.32
15750;BME280;7976;52.526;13.326;2023-02-03T03:54:30;101157.38;;;4.10;99.51
15750;BME280;7976;52.526;13.326;2023-02-03T03:57:05;101144.41;;;4.16;99.76
15750;BME280;7976;52.526;13.326;2023-02-03T03:59:38;101153.03;;;4.17;99.59
15750;BME280;7976;52.526;13.326;2023-02-03T04:02:06;101166.00;;;4.15;99.71
15750;BME280;7976;52.526;13.326;2023-02-03T04:04:37;101159.06;;;4.14;99.76
15750;BME280;7976;52.526;13.326;2023-02-03T04:07:05;101132.31;;;4.12;99.82
15750;BME280;7976;52.526;13.326;2023-02-03T04:09:32;101141.81;;;4.15;99.86
15750;BME280;7976;52.526;13.326;2023-02-03T04:12:01;101130.56;;;4.17;99.89
15750;BME280;7976;52.526;13.326;2023-02-03T04:14:28;101128.88;;;4.16;99.98
15750;BME280;7976;52.526;13.326;2023-02-03T04:16:56;101122.81;;;4.17;100.00
15750;BME280;7976;52.526;13.326;2023-02-03T04:19:26;101107.25;;;4.22;100.00
15750;BME280;7976;52.526;13.326;2023-02-03T04:21:55;101095.16;;;4.22;100.00
15750;BME280;7976;52.526;13.326;2023-02-03T04:24:22;101085.66;;;4.24;100.00
15750;BME280;7976;52.526;13.326;2023-02-03T04:26:49;101084.72;;;4.34;100.00
15750;BME280;7976;52.526;13.326;2023-02-03T04:29:16;101085.63;;;4.33;100.00
15750;BME280;7976;52.526;13.326;2023-02-03T04:31:43;101087.28;;;4.37;100.00
15750;BME280;7976;52.526;13.326;2023-02-03T04:34:10;101081.25;;;4.38;100.00
15750;BME280;7976;52.526;13.326;2023-02-03T04:36:38;101070.03;;;4.38;100.00
15750;BME280;7976;52.526;13.326;2023-02-03T04:39:07;101061.41;;;4.40;100.00
15750;BME280;7976;52.526;13.326;2023-02-03T04:41:36;101054.44;;;4.44;100.00
15750;BME280;7976;52.526;13.326;2023-02-03T04:44:04;101054.41;;;4.48;100.00
15750;BME280;7976;52.526;13.326;2023-02-03T04:46:33;101054.38;;;4.53;100.00
15750;BME280;7976;52.526;13.326;2023-02-03T04:49:01;101035.38;;;4.55;100.00
15750;BME280;7976;52.526;13.326;2023-02-03T04:51:28;101035.34;;;4.58;100.00
15750;BME280;7976;52.526;13.326;2023-02-03T04:53:55;101027.53;;;4.63;100.00
15750;BME280;7976;52.526;13.326;2023-02-03T04:56:23;101021.44;;;4.68;100.00
15750;BME280;7976;52.526;13.326;2023-02-03T04:58:50;101015.31;;;4.74;100.00
15750;BME280;7976;52.526;13.326;2023-02-03T05:01:18;101017.84;;;4.81;100.00
15750;BME280;7976;52.526;13.326;2023-02-03T05:03:46;101012.59;;;4.87;100.00
15750;BME280;7976;52.526;13.326;2023-02-03T05:06:14;101012.53;;;4.96;100.00
15750;BME280;7976;52.526;13.326;2023-02-03T05:08:41;101007.19;;;5.10;100.00
15750;BME280;7976;52.526;13.326;2023-02-03T05:11:08;101004.50;;;5.21;100.00
15750;BME280;7976;52.526;13.326;2023-02-03T05:13:36;100999.19;;;5.30;100.00
15750;BME280;7976;52.526;13.326;2023-02-03T05:16:04;100984.41;;;5.35;100.00
15750;BME280;7976;52.526;13.326;2023-02-03T05:18:31;100979.13;;;5.44;100.00
15750;BME280;7976;52.526;13.326;2023-02-03T05:20:59;100984.22;;;5.51;100.00
15750;BME280;7976;52.526;13.326;2023-02-03T05:23:26;100982.38;;;5.58;100.00
15750;BME280;7976;52.526;13.326;2023-02-03T05:26:03;100968.50;;;5.62;100.00
15750;BME280;7976;52.526;13.326;2023-02-03T05:28:30;100975.28;;;5.72;100.00
15750;BME280;7976;52.526;13.326;2023-02-03T05:31:00;100968.28;;;5.77;100.00
15750;BME280;7976;52.526;13.326;2023-02-03T05:33:29;100966.53;;;5.79;100.00
15750;BME280;7976;52.526;13.326;2023-02-03T05:35:56;100963.84;;;5.89;100.00
15750;BME280;7976;52.526;13.326;2023-02-03T05:38:23;100951.63;;;5.96;100.00
15750;BME280;7976;52.526;13.326;2023-02-03T05:40:51;100950.66;;;6.00;100.00
15750;BME280;7976;52.526;13.326;2023-02-03T05:43:36;100946.22;;;6.06;100.00
15750;BME280;7976;52.526;13.326;2023-02-03T05:46:06;100937.50;;;6.12;100.00
15750;BME280;7976;52.526;13.326;2023-02-03T05:48:34;100938.25;;;6.18;100.00
15750;BME280;7976;52.526;13.326;2023-02-03T05:51:01;100924.31;;;6.24;100.00
15750;BME280;7976;52.526;13.326;2023-02-03T05:53:28;100915.56;;;6.29;100.00
15750;BME280;7976;52.526;13.326;2023-02-03T05:55:55;100918.94;;;6.33;100.00
15750;BME280;7976;52.526;13.326;2023-02-03T05:58:24;100913.72;;;6.36;100.00
15750;BME280;7976;52.526;13.326;2023-02-03T06:00:51;100913.59;;;6.42;100.00
15750;BME280;7976;52.526;13.326;2023-02-03T06:03:24;100904.00;;;6.46;100.00
15750;BME280;7976;52.526;13.326;2023-02-03T06:05:51;100884.88;;;6.50;100.00
15750;BME280;7976;52.526;13.326;2023-02-03T06:08:22;100879.69;;;6.50;100.00
15750;BME280;7976;52.526;13.326;2023-02-03T06:10:57;100877.84;;;6.56;100.00
15750;BME280;7976;52.526;13.326;2023-02-03T06:13:27;100877.75;;;6.61;100.00
15750;BME280;7976;52.526;13.326;2023-02-03T06:15:54;100875.97;;;6.63;100.00
15750;BME280;7976;52.526;13.326;2023-02-03T06:18:25;100870.72;;;6.66;100.00
15750;BME280;7976;52.526;13.326;2023-02-03T06:20:53;100861.13;;;6.68;100.00
15750;BME280;7976;52.526;13.326;2023-02-03T06:23:19;100862.81;;;6.70;100.00
15750;BME280;7976;52.526;13.326;2023-02-03T06:25:50;100859.34;;;6.71;100.00
15750;BME280;7976;52.526;13.326;2023-02-03T06:28:18;100861.00;;;6.74;100.00
15750;BME280;7976;52.526;13.326;2023-02-03T06:30:49;100863.53;;;6.77;100.00
15750;BME280;7976;52.526;13.326;2023-02-03T06:33:18;100860.06;;;6.78;100.00
15750;BME280;7976;52.526;13.326;2023-02-03T06:35:46;100861.75;;;6.80;100.00
15750;BME280;7976;52.526;13.326;2023-02-03T06:38:13;100856.47;;;6.83;100.00
15750;BME280;7976;52.526;13.326;2023-02-03T06:40:39;100855.59;;;6.84;100.00
15750;BME280;7976;52.526;13.326;2023-02-03T06:43:06;100859.03;;;6.86;100.00
15750;BME280;7976;52.526;13.326;2023-02-03T06:45:33;100854.63;;;6.90;100.00
15750;BME280;7976;52.526;13.326;2023-02-03T06:48:00;100852.00;;;6.91;100.00
15750;BME280;7976;52.526;13.326;2023-02-03T06:50:27;100836.31;;;6.94;100.00
15750;BME280;7976;52.526;13.326;2023-02-03T06:52:55;100821.53;;;6.96;100.00
15750;BME280;7976;52.526;13.326;2023-02-03T06:55:22;100832.72;;;7.01;100.00
15750;BME280;7976;52.526;13.326;2023-02-03T06:57:49;100824.88;;;7.03;100.00
15750;BME280;7976;52.526;13.326;2023-02-03T07:00:18;100824.84;;;7.04;100.00
15750;BME280;7976;52.526;13.326;2023-02-03T07:02:51;100823.06;;;7.06;100.00
15750;BME280;7976;52.526;13.326;2023-02-03T07:05:18;100815.22;;;7.08;100.00
15750;BME280;7976;52.526;13.326;2023-02-03T07:07:45;100801.28;;;7.10;100.00
15750;BME280;7976;52.526;13.326;2023-02-03T07:10:13;100811.63;;;7.12;100.00
15750;BME280;7976;52.526;13.326;2023-02-03T07:12:39;100790.78;;;7.13;100.00
15750;BME280;7976;52.526;13.326;2023-02-03T07:15:08;100794.22;;;7.15;100.00
15750;BME280;7976;52.526;13.326;2023-02-03T07:17:35;100792.44;;;7.17;100.00
15750;BME280;7976;52.526;13.326;2023-02-03T07:20:02;100776.78;;;7.19;100.00
15750;BME280;7976;52.526;13.326;2023-02-03T07:22:30;100779.34;;;7.20;100.00
15750;BME280;7976;52.526;13.326;2023-02-03T07:24:56;100774.13;;;7.22;100.00
15750;BME280;7976;52.526;13.326;2023-02-03T07:27:25;100761.97;;;7.22;100.00
15750;BME280;7976;52.526;13.326;2023-02-03T07:29:54;100761.06;;;7.25;100.00
15750;BME280;7976;52.526;13.326;2023-02-03T07:32:21;100755.81;;;7.26;100.00
15750;BME280;7976;52.526;13.326;2023-02-03T07:34:47;100740.16;;;7.28;100.00
15750;BME280;7976;52.526;13.326;2023-02-03T07:37:14;100751.41;;;7.30;100.00
15750;BME280;7976;52.526;13.326;2023-02-03T07:39:41;100737.47;;;7.31;100.00
15750;BME280;7976;52.526;13.326;2023-02-03T07:42:08;100732.19;;;7.34;100.00
15750;BME280;7976;52.526;13.326;2023-02-03T07:44:39;100729.56;;;7.35;100.00
15750;BME280;7976;52.526;13.326;2023-02-03T07:47:05;100726.91;;;7.37;100.00
15750;BME280;7976;52.526;13.326;2023-02-03T07:49:32;100717.38;;;7.37;100.00
15750;BME280;7976;52.526;13.326;2023-02-03T07:51:59;100714.72;;;7.39;100.00
15750;BME280;7976;52.526;13.326;2023-02-03T07:54:26;100700.84;;;7.40;100.00
15750;BME280;7976;52.526;13.326;2023-02-03T07:56:54;100699.97;;;7.39;100.00
15750;BME280;7976;52.526;13.326;2023-02-03T07:59:21;100707.69;;;7.42;100.00
15750;BME280;7976;52.526;13.326;2023-02-03T08:01:49;100692.97;;;7.41;100.00
15750;BME280;7976;52.526;13.326;2023-02-03T08:04:16;100699.88;;;7.42;100.00
15750;BME280;7976;52.526;13.326;2023-02-03T08:06:43;100694.69;;;7.42;100.00
15750;BME280;7976;52.526;13.326;2023-02-03T08:09:10;100686.00;;;7.42;100.00
15750;BME280;7976;52.526;13.326;2023-02-03T08:11:37;100673.00;;;7.42;100.00
15750;BME280;7976;52.526;13.326;2023-02-03T08:14:04;100669.50;;;7.43;100.00
15750;BME280;7976;52.526;13.326;2023-02-03T08:16:30;100657.34;;;7.43;100.00
15750;BME280;7976;52.526;13.326;2023-02-03T08:18:59;100668.66;;;7.42;100.00
15750;BME280;7976;52.526;13.326;2023-02-03T08:21:25;100667.75;;;7.43;100.00
15750;BME280;7976;52.526;13.326;2023-02-03T08:23:52;100650.38;;;7.44;100.00
15750;BME280;7976;52.526;13.326;2023-02-03T08:26:19;100666.00;;;7.44;100.00
15750;BME280;7976;52.526;13.326;2023-02-03T08:28:48;100641.72;;;7.43;100.00
15750;BME280;7976;52.526;13.326;2023-02-03T08:31:15;100654.66;;;7.46;100.00
15750;BME280;7976;52.526;13.326;2023-02-03T08:33:42;100645.13;;;7.45;100.00
15750;BME280;7976;52.526;13.326;2023-02-03T08:36:10;100640.84;;;7.44;100.00
15750;BME280;7976;52.526;13.326;2023-02-03T08:38:38;100641.69;;;7.45;100.00
15750;BME280;7976;52.526;13.326;2023-02-03T08:41:09;100632.13;;;7.45;100.00
15750;BME280;7976;52.526;13.326;2023-02-03T08:43:36;100620.00;;;7.44;100.00
15750;BME280;7976;52.526;13.326;2023-02-03T08:46:04;100623.44;;;7.46;100.00
15750;BME280;7976;52.526;13.326;2023-02-03T08:48:31;100616.41;;;7.48;100.00
15750;BME280;7976;52.526;13.326;2023-02-03T08:50:58;100613.81;;;7.50;100.00
15750;BME280;7976;52.526;13.326;2023-02-03T08:53:26;100611.09;;;7.53;100.00
15750;BME280;7976;52.526;13.326;2023-02-03T08:55:53;100609.31;;;7.55;100.00
15750;BME280;7976;52.526;13.326;2023-02-03T08:58:20;100597.13;;;7.55;100.00
15750;BME280;7976;52.526;13.326;2023-02-03T09:00:47;100600.59;;;7.56;100.00
15750;BME280;7976;52.526;13.326;2023-02-03T09:03:14;100597.09;;;7.57;100.00
15750;BME280;7976;52.526;13.326;2023-02-03T09:05:41;100588.44;;;7.56;100.00
15750;BME280;7976;52.526;13.326;2023-02-03T09:08:08;100590.97;;;7.59;100.00
15750;BME280;7976;52.526;13.326;2023-02-03T09:10:36;100593.56;;;7.59;100.00
15750;BME280;7976;52.526;13.326;2023-02-03T09:13:03;100590.06;;;7.60;100.00
15750;BME280;7976;52.526;13.326;2023-02-03T09:15:30;100574.44;;;7.60;100.00
15750;BME280;7976;52.526;13.326;2023-02-03T09:17:57;100589.19;;;7.61;100.00
15750;BME280;7976;52.526;13.326;2023-02-03T09:20:24;100563.09;;;7.63;100.00
15750;BME280;7976;52.526;13.326;2023-02-03T09:22:50;100569.13;;;7.63;100.00
15750;BME280;7976;52.526;13.326;2023-02-03T09:25:19;100569.06;;;7.67;100.00
15750;BME280;7976;52.526;13.326;2023-02-03T09:27:47;100581.19;;;7.68;100.00
15750;BME280;7976;52.526;13.326;2023-02-03T09:30:14;100573.31;;;7.69;100.00
15750;BME280;7976;52.526;13.326;2023-02-03T09:32:41;100562.88;;;7.71;100.00
15750;BME280;7976;52.526;13.326;2023-02-03T09:35:09;100559.34;;;7.73;100.00
15750;BME280;7976;52.526;13.326;2023-02-03T09:37:36;100551.47;;;7.75;100.00
15750;BME280;7976;52.526;13.326;2023-02-03T09:40:04;100552.34;;;7.75;100.00
15750;BME280;7976;52.526;13.326;2023-02-03T09:43:11;100547.97;;;7.76;100.00
15750;BME280;7976;52.526;13.326;2023-02-03T09:45:40;100544.47;;;7.77;100.00
15750;BME280;7976;52.526;13.326;2023-02-03T09:48:15;100535.69;;;7.79;100.00
15750;BME280;7976;52.526;13.326;2023-02-03T09:50:47;100530.50;;;7.79;100.00
15750;BME280;7976;52.526;13.326;2023-02-03T09:53:26;100527.78;;;7.82;100.00
15750;BME280;7976;52.526;13.326;2023-02-03T09:55:54;100538.19;;;7.84;100.00
15750;BME280;7976;52.526;13.326;2023-02-03T09:58:28;100519.91;;;7.85;100.00
15750;BME280;7976;52.526;13.326;2023-02-03T10:00:59;100519.88;;;7.87;100.00
15750;BME280;7976;52.526;13.326;2023-02-03T10:03:36;100500.63;;;7.91;100.00
15750;BME280;7976;52.526;13.326;2023-02-03T10:06:14;100486.72;;;7.92;100.00
15750;BME280;7976;52.526;13.326;2023-02-03T10:09:05;100468.38;;;7.95;100.00
15750;BME280;7976;52.526;13.326;2023-02-03T10:11:54;100475.22;;;7.97;100.00
15750;BME280;7976;52.526;13.326;2023-02-03T10:14:49;100449.16;;;7.99;100.00
15750;BME280;7976;52.526;13.326;2023-02-03T10:17:29;100456.78;;;8.05;100.00
15750;BME280;7976;52.526;13.326;2023-02-03T10:20:05;100461.88;;;8.08;100.00
15750;BME280;7976;52.526;13.326;2023-02-03T10:22:42;100457.47;;;8.10;100.00
15750;BME280;7976;52.526;13.326;2023-02-03T10:25:19;100440.94;;;8.11;100.00
15750;BME280;7976;52.526;13.326;2023-02-03T10:27:50;100458.25;;;8.13;100.00
15750;BME280;7976;52.526;13.326;2023-02-03T10:30:23;100459.97;;;8.13;100.00
15750;BME280;7976;52.526;13.326;2023-02-03T10:32:55;100461.72;;;8.14;100.00
15750;BME280;7976;52.526;13.326;2023-02-03T10:35:35;100475.50;;;8.16;100.00
15750;BME280;7976;52.526;13.326;2023-02-03T10:38:13;100472.03;;;8.17;100.00
15750;BME280;7976;52.526;13.326;2023-02-03T10:40:42;100488.59;;;8.14;100.00
15750;BME280;7976;52.526;13.326;2023-02-03T10:43:10;100524.25;;;8.14;100.00
15750;BME280;7976;52.526;13.326;2023-02-03T10:45:57;100543.38;;;8.13;100.00
15750;BME280;7976;52.526;13.326;2023-02-03T10:48:24;100547.00;;;8.09;100.00
15750;BME280;7976;52.526;13.326;2023-02-03T10:50:54;100544.59;;;8.01;100.00
15750;BME280;7976;52.526;13.326;2023-02-03T10:53:34;100529.63;;;7.80;100.00
15750;BME280;7976;52.526;13.326;2023-02-03T10:56:04;100535.13;;;7.70;100.00
15750;BME280;7976;52.526;13.326;2023-02-03T10:58:33;100542.91;;;7.71;100.00
15750;BME280;7976;52.526;13.326;2023-02-03T11:01:10;100547.19;;;7.72;100.00
15750;BME280;7976;52.526;13.326;2023-02-03T11:03:40;100537.72;;;7.70;100.00
15750;BME280;7976;52.526;13.326;2023-02-03T11:06:11;100531.84;;;7.63;100.00
15750;BME280;7976;52.526;13.326;2023-02-03T11:08:41;100548.59;;;7.54;100.00
15750;BME280;7976;52.526;13.326;2023-02-03T11:11:13;100543.63;;;7.45;100.00
15750;BME280;7976;52.526;13.326;2023-02-03T11:13:40;100538.50;;;7.42;100.00
15750;BME280;7976;52.526;13.326;2023-02-03T11:16:14;100538.59;;;7.39;100.00
15750;BME280;7976;52.526;13.326;2023-02-03T11:18:52;100540.28;;;7.40;100.00
15750;BME280;7976;52.526;13.326;2023-02-03T11:21:22;100530.78;;;7.39;100.00
15750;BME280;7976;52.526;13.326;2023-02-03T11:24:00;100529.00;;;7.41;100.00
15750;BME280;7976;52.526;13.326;2023-02-03T11:26:33;100518.53;;;7.43;100.00
15750;BME280;7976;52.526;13.326;2023-02-03T11:29:03;100514.22;;;7.42;100.00
15750;BME280;7976;52.526;13.326;2023-02-03T11:31:35;100522.06;;;7.40;100.00
15750;BME280;7976;52.526;13.326;2023-02-03T11:34:15;100523.06;;;7.36;100.00
15750;BME280;7976;52.526;13.326;2023-02-03T11:36:42;100521.25;;;7.38;100.00
15750;BME280;7976;52.526;13.326;2023-02-03T11:39:17;100523.78;;;7.41;100.00
15750;BME280;7976;52.526;13.326;2023-02-03T11:41:46;100549.59;;;7.49;100.00
15750;BME280;7976;52.526;13.326;2023-02-03T11:44:19;100543.28;;;7.57;100.00
15750;BME280;7976;52.526;13.326;2023-02-03T11:46:52;100548.28;;;7.65;100.00
15750;BME280;7976;52.526;13.326;2023-02-03T11:49:59;100548.63;;;7.84;100.00
15750;BME280;7976;52.526;13.326;2023-02-03T11:52:51;100533.31;;;8.01;100.00
15750;BME280;7976;52.526;13.326;2023-02-03T11:55:34;100555.88;;;8.02;100.00
15750;BME280;7976;52.526;13.326;2023-02-03T11:58:46;100544.66;;;8.00;100.00
15750;BME280;7976;52.526;13.326;2023-02-03T12:01:26;100526.50;;;7.97;100.00
15750;BME280;7976;52.526;13.326;2023-02-03T12:04:20;100536.16;;;7.93;100.00
15750;BME280;7976;52.526;13.326;2023-02-03T12:07:21;100545.00;;;7.88;100.00
15750;BME280;7976;52.526;13.326;2023-02-03T12:10:00;100549.41;;;7.86;99.55
15750;BME280;7976;52.526;13.326;2023-02-03T12:12:50;100551.06;;;7.88;99.16
15750;BME280;7976;52.526;13.326;2023-02-03T12:15:39;100554.34;;;7.95;98.44
15750;BME280;7976;52.526;13.326;2023-02-03T12:18:43;100560.00;;;8.09;97.82
15750;BME280;7976;52.526;13.326;2023-02-03T12:21:42;100535.34;;;8.20;96.79
15750;BME280;7976;52.526;13.326;2023-02-03T12:24:22;100541.03;;;8.33;96.07
15750;BME280;7976;52.526;13.326;2023-02-03T12:27:05;100546.63;;;8.48;95.21
15750;BME280;7976;52.526;13.326;2023-02-03T12:29:40;100535.94;;;8.56;94.31
15750;BME280;7976;52.526;13.326;2023-02-03T12:32:19;100529.88;;;8.55;92.90
15750;BME280;7976;52.526;13.326;2023-02-03T12:34:55;100544.66;;;8.55;92.20
15750;BME280;7976;52.526;13.326;2023-02-03T12:37:31;100543.69;;;8.59;91.17
15750;BME280;7976;52.526;13.326;2023-02-03T12:40:14;100542.81;;;8.58;89.81
15750;BME280;7976;52.526;13.326;2023-02-03T12:42:51;100555.06;;;8.56;88.95
15750;BME280;7976;52.526;13.326;2023-02-03T12:45:24;100532.50;;;8.55;87.55
15750;BME280;7976;52.526;13.326;2023-02-03T12:47:59;100542.94;;;8.55;86.20
15750;BME280;7976;52.526;13.326;2023-02-03T12:50:36;100554.41;;;8.50;85.85
15750;BME280;7976;52.526;13.326;2023-02-03T12:53:14;100535.53;;;8.42;85.30
15750;BME280;7976;52.526;13.326;2023-02-03T12:55:46;100568.91;;;8.31;85.25
15750;BME280;7976;52.526;13.326;2023-02-03T12:58:23;100623.53;;;8.05;85.93
15750;BME280;7976;52.526;13.326;2023-02-03T13:00:59;100657.44;;;7.73;87.32
15750;BME280;7976;52.526;13.326;2023-02-03T13:03:36;100678.31;;;7.37;89.32
15750;BME280;7976;52.526;13.326;2023-02-03T13:06:15;100663.47;;;7.07;91.54
15750;BME280;7976;52.526;13.326;2023-02-03T13:08:53;100658.09;;;6.78;92.93
15750;BME280;7976;52.526;13.326;2023-02-03T13:11:28;100673.31;;;6.57;94.18
15750;BME280;7976;52.526;13.326;2023-02-03T13:14:11;100674.47;;;6.44;95.50
15750;BME280;7976;52.526;13.326;2023-02-03T13:16:43;100681.50;;;6.40;96.53
15750;BME280;7976;52.526;13.326;2023-02-03T13:19:20;100692.81;;;6.38;97.14
15750;BME280;7976;52.526;13.326;2023-02-03T13:21:49;100689.34;;;6.37;98.04